sensor_id;sensor_type;location;lat;lon;timestamp;temperature;humidity
6307;DHT22;3186;54.062;9.962;2023-03-01T00:01:10;1.90;99.90
6307;DHT22;3186;54.062;9.962;2023-03-01T00:03:36;1.90;99.90
6307;DHT22;3186;54.062;9.962;2023-03-01T00:06:03;1.90;99.90
6307;DHT22;3186;54.062;9.962;2023-03-01T00:08:29;1.90;99.90
6307;DHT22;3186;54.062;9.962;2023-03-01T00:13:34;1.90;99.90
6307;DHT22;3186;54.062;9.962;2023-03-01T00:16:06;1.90;99.90
6307;DHT22;3186;54.062;9.962;2023-03-01T00:18:32;1.90;99.90
6307;DHT22;3186;54.062;9.962;2023-03-01T00:20:58;1.90;99.90
6307;DHT22;3186;54.062;9.962;2023-03-01T00:23:25;1.90;99.90
6307;DHT22;3186;54.062;9.962;2023-03-01T00:25:51;1.90;99.90
6307;DHT22;3186;54.062;9.962;2023-03-01T00:28:18;1.90;99.90
6307;DHT22;3186;54.062;9.962;2023-03-01T00:30:44;1.90;99.90
6307;DHT22;3186;54.062;9.962;2023-03-01T00:33:09;1.90;99.90
6307;DHT22;3186;54.062;9.962;2023-03-01T00:35:35;1.90;99.90
6307;DHT22;3186;54.062;9.962;2023-03-01T00:38:01;1.90;99.90
6307;DHT22;3186;54.062;9.962;2023-03-01T00:40:28;1.90;99.90
6307;DHT22;3186;54.062;9.962;2023-03-01T00:42:54;1.90;99.90
6307;DHT22;3186;54.062;9.962;2023-03-01T00:45:21;1.90;99.90
6307;DHT22;3186;54.062;9.962;2023-03-01T00:47:48;1.90;99.90
6307;DHT22;3186;54.062;9.962;2023-03-01T00:50:14;1.90;99.90
6307;DHT22;3186;54.062;9.962;2023-03-01T00:52:40;2.00;99.90
6307;DHT22;3186;54.062;9.962;2023-03-01T00:55:07;1.90;99.90
6307;DHT22;3186;54.062;9.962;2023-03-01T00:57:33;2.00;99.90
6307;DHT22;3186;54.062;9.962;2023-03-01T00:59:59;2.00;99.90
6307;DHT22;3186;54.062;9.962;2023-03-01T01:02:25;2.00;99.90
6307;DHT22;3186;54.062;9.962;2023-03-01T01:04:51;2.00;99.90
6307;DHT22;3186;54.062;9.962;2023-03-01T01:07:18;2.00;99.90
6307;DHT22;3186;54.062;9.962;2023-03-01T01:09:46;2.00;99.90
6307;DHT22;3186;54.062;9.962;2023-03-01T01:12:11;2.10;99.90
6307;DHT22;3186;54.062;9.962;2023-03-01T01:14:38;2.00;99.90
6307;DHT22;3186;54.062;9.962;2023-03-01T01:17:04;2.00;99.90
6307;DHT22;3186;54.062;9.962;2023-03-01T01:19:30;2.00;99.90
6307;DHT22;3186;54.062;9.962;2023-03-01T01:21:56;2.00;99.90
6307;DHT22;3186;54.062;9.962;2023-03-01T01:24:22;2.00;99.90
6307;DHT22;3186;54.062;9.962;2023-03-01T01:26:48;2.00;99.90
6307;DHT22;3186;54.062;9.962;2023-03-01T01:29:14;2.00;99.90
6307;DHT22;3186;54.062;9.962;2023-03-01T01:31:42;2.00;99.90
6307;DHT22;3186;54.062;9.962;2023-03-01T01:34:13;2.00;99.90
6307;DHT22;3186;54.062;9.962;2023-03-01T01:36:40;2.00;99.90
6307;DHT22;3186;54.062;9.962;2023-03-01T01:39:05;2.00;99.90
6307;DHT22;3186;54.062;9.962;2023-03-01T01:41:32;2.00;99.90
6307;DHT22;3186;54.062;9.962;2023-03-01T01:44:22;2.00;99.90
6307;DHT22;3186;54.062;9.962;2023-03-01T01:49:43;2.10;99.90
6307;DHT22;3186;54.062;9.962;2023-03-01T01:52:16;2.10;99.90
6307;DHT22;3186;54.062;9.962;2023-03-01T01:57:25;2.00;99.90
6307;DHT22;3186;54.062;9.962;2023-03-01T01:59:54;2.00;99.90
6307;DHT22;3186;54.062;9.962;2023-03-01T02:02:22;2.10;99.90
6307;DHT22;3186;54.062;9.962;2023-03-01T02:04:49;2.00;99.90
6307;DHT22;3186;54.062;9.962;2023-03-01T02:07:23;2.00;99.90
6307;DHT22;3186;54.062;9.962;2023-03-01T02:09:51;2.10;99.90
6307;DHT22;3186;54.062;9.962;2023-03-01T02:12:23;2.10;99.90
6307;DHT22;3186;54.062;9.962;2023-03-01T02:14:50;2.00;99.90
6307;DHT22;3186;54.062;9.962;2023-03-01T02:17:17;2.00;99.90
6307;DHT22;3186;54.062;9.962;2023-03-01T02:19:47;2.00;99.90
6307;DHT22;3186;54.062;9.962;2023-03-01T02:22:25;2.00;99.90
6307;DHT22;3186;54.062;9.962;2023-03-01T02:27:23;2.00;99.90
6307;DHT22;3186;54.062;9.962;2023-03-01T02:29:52;2.10;99.90
6307;DHT22;3186;54.062;9.962;2023-03-01T02:32:18;2.00;99.90
6307;DHT22;3186;54.062;9.962;2023-03-01T02:34:54;2.00;99.90
6307;DHT22;3186;54.062;9.962;2023-03-01T02:37:21;2.00;99.90
6307;DHT22;3186;54.062;9.962;2023-03-01T02:40:03;2.00;99.90
6307;DHT22;3186;54.062;9.962;2023-03-01T02:42:35;2.00;99.90
6307;DHT22;3186;54.062;9.962;2023-03-01T02:45:03;2.00;99.90
6307;DHT22;3186;54.062;9.962;2023-03-01T02:47:28;2.00;99.90
6307;DHT22;3186;54.062;9.962;2023-03-01T02:49:54;2.00;99.90
6307;DHT22;3186;54.062;9.962;2023-03-01T02:55:09;2.00;99.90
6307;DHT22;3186;54.062;9.962;2023-03-01T02:57:39;2.00;99.90
6307;DHT22;3186;54.062;9.962;2023-03-01T03:00:11;2.00;99.90
6307;DHT22;3186;54.062;9.962;2023-03-01T03:02:46;2.00;99.90
6307;DHT22;3186;54.062;9.962;2023-03-01T03:05:25;2.00;99.90
6307;DHT22;3186;54.062;9.962;2023-03-01T03:07:55;2.00;99.90
6307;DHT22;3186;54.062;9.962;2023-03-01T03:10:25;2.00;99.90
6307;DHT22;3186;54.062;9.962;2023-03-01T03:12:54;2.00;99.90
6307;DHT22;3186;54.062;9.962;2023-03-01T03:15:21;2.00;99.90
6307;DHT22;3186;54.062;9.962;2023-03-01T03:17:48;1.90;99.90
6307;DHT22;3186;54.062;9.962;2023-03-01T03:20:17;2.00;99.90
6307;DHT22;3186;54.062;9.962;2023-03-01T03:22:50;2.00;99.90
6307;DHT22;3186;54.062;9.962;2023-03-01T03:25:17;2.00;99.90
6307;DHT22;3186;54.062;9.962;2023-03-01T03:27:45;2.00;99.90
6307;DHT22;3186;54.062;9.962;2023-03-01T03:30:14;2.00;99.90
6307;DHT22;3186;54.062;9.962;2023-03-01T03:32:41;1.90;99.90
6307;DHT22;3186;54.062;9.962;2023-03-01T03:35:09;2.00;99.90
6307;DHT22;3186;54.062;9.962;2023-03-01T03:37:39;2.00;99.90
6307;DHT22;3186;54.062;9.962;2023-03-01T03:40:24;1.90;99.90
6307;DHT22;3186;54.062;9.962;2023-03-01T03:42:50;1.90;99.90
6307;DHT22;3186;54.062;9.962;2023-03-01T03:45:17;1.90;99.90
6307;DHT22;3186;54.062;9.962;2023-03-01T03:47:43;1.90;99.90
6307;DHT22;3186;54.062;9.962;2023-03-01T03:50:14;1.90;99.90
6307;DHT22;3186;54.062;9.962;2023-03-01T03:52:41;1.90;99.90
6307;DHT22;3186;54.062;9.962;2023-03-01T03:55:08;1.90;99.90
6307;DHT22;3186;54.062;9.962;2023-03-01T03:57:35;1.90;99.90
6307;DHT22;3186;54.062;9.962;2023-03-01T04:00:01;1.90;99.90
6307;DHT22;3186;54.062;9.962;2023-03-01T04:02:40;1.90;99.90
6307;DHT22;3186;54.062;9.962;2023-03-01T04:05:07;1.90;99.90
6307;DHT22;3186;54.062;9.962;2023-03-01T04:07:34;1.90;99.90
6307;DHT22;3186;54.062;9.962;2023-03-01T04:10:01;1.90;99.90
6307;DHT22;3186;54.062;9.962;2023-03-01T04:12:27;1.90;99.90
6307;DHT22;3186;54.062;9.962;2023-03-01T04:14:53;1.90;99.90
6307;DHT22;3186;54.062;9.962;2023-03-01T04:17:18;1.90;99.90
6307;DHT22;3186;54.062;9.962;2023-03-01T04:19:44;1.90;99.90
6307;DHT22;3186;54.062;9.962;2023-03-01T04:22:14;1.90;99.90
6307;DHT22;3186;54.062;9.962;2023-03-01T04:24:43;1.90;99.90
6307;DHT22;3186;54.062;9.962;2023-03-01T04:27:09;1.90;99.90
6307;DHT22;3186;54.062;9.962;2023-03-01T04:29:35;1.90;99.90
6307;DHT22;3186;54.062;9.962;2023-03-01T04:32:01;1.90;99.90
6307;DHT22;3186;54.062;9.962;2023-03-01T04:34:26;1.90;99.90
6307;DHT22;3186;54.062;9.962;2023-03-01T04:36:52;1.90;99.90
6307;DHT22;3186;54.062;9.962;2023-03-01T04:39:18;1.80;99.90
6307;DHT22;3186;54.062;9.962;2023-03-01T04:41:44;1.90;99.90
6307;DHT22;3186;54.062;9.962;2023-03-01T04:44:10;1.90;99.90
6307;DHT22;3186;54.062;9.962;2023-03-01T04:46:36;1.90;99.90
6307;DHT22;3186;54.062;9.962;2023-03-01T04:49:03;1.90;99.90
6307;DHT22;3186;54.062;9.962;2023-03-01T04:51:28;1.90;99.90
6307;DHT22;3186;54.062;9.962;2023-03-01T04:53:54;1.80;99.90
6307;DHT22;3186;54.062;9.962;2023-03-01T04:56:20;1.80;99.90
6307;DHT22;3186;54.062;9.962;2023-03-01T04:58:48;1.80;99.90
6307;DHT22;3186;54.062;9.962;2023-03-01T05:01:17;1.80;99.90
6307;DHT22;3186;54.062;9.962;2023-03-01T05:03:51;1.80;99.90
6307;DHT22;3186;54.062;9.962;2023-03-01T05:06:18;1.80;99.90
6307;DHT22;3186;54.062;9.962;2023-03-01T05:08:45;1.80;99.90
6307;DHT22;3186;54.062;9.962;2023-03-01T05:11:11;1.80;99.90
6307;DHT22;3186;54.062;9.962;2023-03-01T05:13:38;1.80;99.90
6307;DHT22;3186;54.062;9.962;2023-03-01T05:16:05;1.80;99.90
6307;DHT22;3186;54.062;9.962;2023-03-01T05:18:33;1.80;99.90
6307;DHT22;3186;54.062;9.962;2023-03-01T05:21:05;1.80;99.90
6307;DHT22;3186;54.062;9.962;2023-03-01T05:23:32;1.70;99.90
6307;DHT22;3186;54.062;9.962;2023-03-01T05:25:59;1.70;99.90
6307;DHT22;3186;54.062;9.962;2023-03-01T05:28:26;1.70;99.90
6307;DHT22;3186;54.062;9.962;2023-03-01T05:30:54;1.70;99.90
6307;DHT22;3186;54.062;9.962;2023-03-01T05:33:20;1.70;99.90
6307;DHT22;3186;54.062;9.962;2023-03-01T05:35:48;1.80;99.90
6307;DHT22;3186;54.062;9.962;2023-03-01T05:38:16;1.80;99.90
6307;DHT22;3186;54.062;9.962;2023-03-01T05:40:43;1.70;99.90
6307;DHT22;3186;54.062;9.962;2023-03-01T05:43:10;1.70;99.90
6307;DHT22;3186;54.062;9.962;2023-03-01T05:45:37;1.70;99.90
6307;DHT22;3186;54.062;9.962;2023-03-01T05:48:04;1.70;99.90
6307;DHT22;3186;54.062;9.962;2023-03-01T05:50:34;1.70;99.90
6307;DHT22;3186;54.062;9.962;2023-03-01T05:53:10;1.70;99.90
6307;DHT22;3186;54.062;9.962;2023-03-01T05:55:37;1.70;99.90
6307;DHT22;3186;54.062;9.962;2023-03-01T05:58:05;1.70;99.90
6307;DHT22;3186;54.062;9.962;2023-03-01T06:00:32;1.70;99.90
6307;DHT22;3186;54.062;9.962;2023-03-01T06:02:59;1.70;99.90
6307;DHT22;3186;54.062;9.962;2023-03-01T06:05:26;1.70;99.90
6307;DHT22;3186;54.062;9.962;2023-03-01T06:07:52;1.70;99.90
6307;DHT22;3186;54.062;9.962;2023-03-01T06:10:20;1.70;99.90
6307;DHT22;3186;54.062;9.962;2023-03-01T06:12:46;1.70;99.90
6307;DHT22;3186;54.062;9.962;2023-03-01T06:15:14;1.70;99.90
6307;DHT22;3186;54.062;9.962;2023-03-01T06:17:42;1.70;99.90
6307;DHT22;3186;54.062;9.962;2023-03-01T06:22:39;1.70;99.90
6307;DHT22;3186;54.062;9.962;2023-03-01T06:25:05;1.60;99.90
6307;DHT22;3186;54.062;9.962;2023-03-01T06:27:31;1.60;99.90
6307;DHT22;3186;54.062;9.962;2023-03-01T06:29:57;1.60;99.90
6307;DHT22;3186;54.062;9.962;2023-03-01T06:32:23;1.60;99.90
6307;DHT22;3186;54.062;9.962;2023-03-01T06:34:49;1.60;99.90
6307;DHT22;3186;54.062;9.962;2023-03-01T06:37:15;1.60;99.90
6307;DHT22;3186;54.062;9.962;2023-03-01T06:39:41;1.60;99.90
6307;DHT22;3186;54.062;9.962;2023-03-01T06:42:10;1.60;99.90
6307;DHT22;3186;54.062;9.962;2023-03-01T06:44:37;1.60;99.90
6307;DHT22;3186;54.062;9.962;2023-03-01T06:47:03;1.60;99.90
6307;DHT22;3186;54.062;9.962;2023-03-01T06:49:29;1.60;99.90
6307;DHT22;3186;54.062;9.962;2023-03-01T06:51:56;1.60;99.90
6307;DHT22;3186;54.062;9.962;2023-03-01T06:54:22;1.60;99.90
6307;DHT22;3186;54.062;9.962;2023-03-01T06:56:49;1.60;99.90
6307;DHT22;3186;54.062;9.962;2023-03-01T06:59:16;1.60;99.90
6307;DHT22;3186;54.062;9.962;2023-03-01T07:01:42;1.60;99.90
6307;DHT22;3186;54.062;9.962;2023-03-01T07:04:09;1.60;99.90
6307;DHT22;3186;54.062;9.962;2023-03-01T07:06:35;1.60;99.90
6307;DHT22;3186;54.062;9.962;2023-03-01T07:09:01;1.60;99.90
6307;DHT22;3186;54.062;9.962;2023-03-01T07:11:26;1.60;99.90
6307;DHT22;3186;54.062;9.962;2023-03-01T07:13:52;1.60;99.90
6307;DHT22;3186;54.062;9.962;2023-03-01T07:16:18;1.60;99.90
6307;DHT22;3186;54.062;9.962;2023-03-01T07:18:46;1.60;99.90
6307;DHT22;3186;54.062;9.962;2023-03-01T07:21:13;1.60;99.90
6307;DHT22;3186;54.062;9.962;2023-03-01T07:23:39;1.60;99.90
6307;DHT22;3186;54.062;9.962;2023-03-01T07:26:05;1.60;99.90
6307;DHT22;3186;54.062;9.962;2023-03-01T07:28:31;1.60;99.90
6307;DHT22;3186;54.062;9.962;2023-03-01T07:31:05;1.60;99.90
6307;DHT22;3186;54.062;9.962;2023-03-01T07:33:31;1.70;99.90
6307;DHT22;3186;54.062;9.962;2023-03-01T07:35:59;1.60;99.90
6307;DHT22;3186;54.062;9.962;2023-03-01T07:38:26;1.60;99.90
6307;DHT22;3186;54.062;9.962;2023-03-01T07:40:52;1.70;99.90
6307;DHT22;3186;54.062;9.962;2023-03-01T07:43:18;1.60;99.90
6307;DHT22;3186;54.062;9.962;2023-03-01T07:45:44;1.60;99.90
6307;DHT22;3186;54.062;9.962;2023-03-01T07:48:10;1.70;99.90
6307;DHT22;3186;54.062;9.962;2023-03-01T07:50:35;1.60;99.90
6307;DHT22;3186;54.062;9.962;2023-03-01T07:53:01;1.70;99.90
6307;DHT22;3186;54.062;9.962;2023-03-01T07:55:28;1.70;99.90
6307;DHT22;3186;54.062;9.962;2023-03-01T07:57:54;1.60;99.90
6307;DHT22;3186;54.062;9.962;2023-03-01T08:00:19;1.70;99.90
6307;DHT22;3186;54.062;9.962;2023-03-01T08:02:45;1.70;99.90
6307;DHT22;3186;54.062;9.962;2023-03-01T08:05:11;1.70;99.90
6307;DHT22;3186;54.062;9.962;2023-03-01T08:07:37;1.70;99.90
6307;DHT22;3186;54.062;9.962;2023-03-01T08:10:03;1.70;99.90
6307;DHT22;3186;54.062;9.962;2023-03-01T08:12:29;1.70;99.90
6307;DHT22;3186;54.062;9.962;2023-03-01T08:14:55;1.70;99.90
6307;DHT22;3186;54.062;9.962;2023-03-01T08:17:22;1.70;99.90
6307;DHT22;3186;54.062;9.962;2023-03-01T08:19:48;1.70;99.90
6307;DHT22;3186;54.062;9.962;2023-03-01T08:22:14;1.80;99.90
6307;DHT22;3186;54.062;9.962;2023-03-01T08:24:40;1.80;99.90
6307;DHT22;3186;54.062;9.962;2023-03-01T08:27:06;1.80;99.90
6307;DHT22;3186;54.062;9.962;2023-03-01T08:29:32;1.70;99.90
6307;DHT22;3186;54.062;9.962;2023-03-01T08:31:58;1.80;99.90
6307;DHT22;3186;54.062;9.962;2023-03-01T08:34:27;1.80;99.90
6307;DHT22;3186;54.062;9.962;2023-03-01T08:36:52;1.80;99.90
6307;DHT22;3186;54.062;9.962;2023-03-01T08:39:19;1.80;99.90
6307;DHT22;3186;54.062;9.962;2023-03-01T08:41:46;1.80;99.90
6307;DHT22;3186;54.062;9.962;2023-03-01T08:44:14;1.80;99.90
6307;DHT22;3186;54.062;9.962;2023-03-01T08:46:42;1.80;99.90
6307;DHT22;3186;54.062;9.962;2023-03-01T08:49:11;1.80;99.90
6307;DHT22;3186;54.062;9.962;2023-03-01T08:51:38;1.90;99.90
6307;DHT22;3186;54.062;9.962;2023-03-01T08:54:05;1.90;99.90
6307;DHT22;3186;54.062;9.962;2023-03-01T08:56:31;1.90;99.90
6307;DHT22;3186;54.062;9.962;2023-03-01T08:58:56;1.90;99.90
6307;DHT22;3186;54.062;9.962;2023-03-01T09:01:22;1.90;99.90
6307;DHT22;3186;54.062;9.962;2023-03-01T09:03:48;1.80;99.90
6307;DHT22;3186;54.062;9.962;2023-03-01T09:06:14;1.90;99.90
6307;DHT22;3186;54.062;9.962;2023-03-01T09:08:46;1.90;99.90
6307;DHT22;3186;54.062;9.962;2023-03-01T09:11:15;2.00;99.90
6307;DHT22;3186;54.062;9.962;2023-03-01T09:13:45;2.00;99.90
6307;DHT22;3186;54.062;9.962;2023-03-01T09:16:13;2.10;99.90
6307;DHT22;3186;54.062;9.962;2023-03-01T09:18:40;2.10;99.90
6307;DHT22;3186;54.062;9.962;2023-03-01T09:21:16;2.10;99.90
6307;DHT22;3186;54.062;9.962;2023-03-01T09:23:45;2.10;99.90
6307;DHT22;3186;54.062;9.962;2023-03-01T09:26:21;2.20;99.90
6307;DHT22;3186;54.062;9.962;2023-03-01T09:28:49;2.20;99.90
6307;DHT22;3186;54.062;9.962;2023-03-01T09:31:16;2.20;99.90
6307;DHT22;3186;54.062;9.962;2023-03-01T09:33:45;2.20;99.90
6307;DHT22;3186;54.062;9.962;2023-03-01T09:36:13;2.20;99.90
6307;DHT22;3186;54.062;9.962;2023-03-01T09:38:39;2.20;99.90
6307;DHT22;3186;54.062;9.962;2023-03-01T09:46:21;2.40;99.90
6307;DHT22;3186;54.062;9.962;2023-03-01T09:49:02;3.20;99.90
6307;DHT22;3186;54.062;9.962;2023-03-01T09:51:34;2.50;99.90
6307;DHT22;3186;54.062;9.962;2023-03-01T09:54:02;2.60;99.90
6307;DHT22;3186;54.062;9.962;2023-03-01T09:56:30;2.50;99.90
6307;DHT22;3186;54.062;9.962;2023-03-01T10:01:44;2.60;99.90
6307;DHT22;3186;54.062;9.962;2023-03-01T10:07:39;2.70;99.90
6307;DHT22;3186;54.062;9.962;2023-03-01T10:10:01;2.80;99.90
6307;DHT22;3186;54.062;9.962;2023-03-01T10:12:36;2.90;99.90
6307;DHT22;3186;54.062;9.962;2023-03-01T10:15:34;2.90;99.90
6307;DHT22;3186;54.062;9.962;2023-03-01T10:18:14;3.00;99.90
6307;DHT22;3186;54.062;9.962;2023-03-01T10:23:16;3.10;99.90
6307;DHT22;3186;54.062;9.962;2023-03-01T10:26:07;3.20;99.90
6307;DHT22;3186;54.062;9.962;2023-03-01T10:28:54;3.10;99.90
6307;DHT22;3186;54.062;9.962;2023-03-01T10:31:27;3.20;99.90
6307;DHT22;3186;54.062;9.962;2023-03-01T10:34:16;3.30;99.90
6307;DHT22;3186;54.062;9.962;2023-03-01T10:36:44;3.40;99.90
6307;DHT22;3186;54.062;9.962;2023-03-01T10:39:28;3.40;99.90
6307;DHT22;3186;54.062;9.962;2023-03-01T10:41:56;3.40;99.90
6307;DHT22;3186;54.062;9.962;2023-03-01T10:44:43;3.60;99.90
6307;DHT22;3186;54.062;9.962;2023-03-01T10:47:18;3.60;99.90
6307;DHT22;3186;54.062;9.962;2023-03-01T10:49:56;3.50;99.90
6307;DHT22;3186;54.062;9.962;2023-03-01T10:55:02;3.80;99.90
6307;DHT22;3186;54.062;9.962;2023-03-01T10:57:34;3.90;99.90
6307;DHT22;3186;54.062;9.962;2023-03-01T11:00:24;3.70;99.90
6307;DHT22;3186;54.062;9.962;2023-03-01T11:03:12;3.80;99.90
6307;DHT22;3186;54.062;9.962;2023-03-01T11:08:30;3.90;99.90
6307;DHT22;3186;54.062;9.962;2023-03-01T11:11:17;3.80;99.90
6307;DHT22;3186;54.062;9.962;2023-03-01T11:13:52;3.90;99.90
6307;DHT22;3186;54.062;9.962;2023-03-01T11:16:24;4.30;99.90
6307;DHT22;3186;54.062;9.962;2023-03-01T11:21:25;4.10;99.90
6307;DHT22;3186;54.062;9.962;2023-03-01T11:23:52;4.40;99.90
6307;DHT22;3186;54.062;9.962;2023-03-01T11:26:18;4.30;99.90
6307;DHT22;3186;54.062;9.962;2023-03-01T11:28:50;4.40;99.90
6307;DHT22;3186;54.062;9.962;2023-03-01T11:31:17;4.60;99.90
6307;DHT22;3186;54.062;9.962;2023-03-01T11:34:05;4.70;99.90
6307;DHT22;3186;54.062;9.962;2023-03-01T11:39:37;4.70;99.90
6307;DHT22;3186;54.062;9.962;2023-03-01T11:42:18;4.50;99.90
6307;DHT22;3186;54.062;9.962;2023-03-01T11:44:48;4.90;99.90
6307;DHT22;3186;54.062;9.962;2023-03-01T12:15:26;5.60;99.90
6307;DHT22;3186;54.062;9.962;2023-03-01T12:20:28;5.30;99.90
6307;DHT22;3186;54.062;9.962;2023-03-01T12:26:20;5.40;99.90
6307;DHT22;3186;54.062;9.962;2023-03-01T12:31:44;5.90;99.90
6307;DHT22;3186;54.062;9.962;2023-03-01T12:34:50;6.10;99.90
6307;DHT22;3186;54.062;9.962;2023-03-01T12:37:25;6.00;99.90
6307;DHT22;3186;54.062;9.962;2023-03-01T12:43:27;6.70;99.90
6307;DHT22;3186;54.062;9.962;2023-03-01T12:51:39;6.10;99.90
6307;DHT22;3186;54.062;9.962;2023-03-01T12:54:14;6.50;99.90
6307;DHT22;3186;54.062;9.962;2023-03-01T12:56:41;6.70;99.90
6307;DHT22;3186;54.062;9.962;2023-03-01T12:59:18;7.00;99.90
6307;DHT22;3186;54.062;9.962;2023-03-01T13:07:25;7.60;99.90
6307;DHT22;3186;54.062;9.962;2023-03-01T13:09:56;7.40;99.90
6307;DHT22;3186;54.062;9.962;2023-03-01T13:17:49;7.90;99.90
6307;DHT22;3186;54.062;9.962;2023-03-01T13:20:25;8.10;99.90
6307;DHT22;3186;54.062;9.962;2023-03-01T13:23:44;8.00;99.90
6307;DHT22;3186;54.062;9.962;2023-03-01T13:26:05;7.20;99.90
6307;DHT22;3186;54.062;9.962;2023-03-01T13:31:36;7.20;99.90
6307;DHT22;3186;54.062;9.962;2023-03-01T13:34:00;7.50;99.90
6307;DHT22;3186;54.062;9.962;2023-03-01T13:46:53;7.90;99.90
6307;DHT22;3186;54.062;9.962;2023-03-01T13:49:58;7.80;99.90
6307;DHT22;3186;54.062;9.962;2023-03-01T13:58:03;8.40;99.90
6307;DHT22;3186;54.062;9.962;2023-03-01T14:03:10;8.00;99.90
6307;DHT22;3186;54.062;9.962;2023-03-01T14:05:37;8.20;99.90
6307;DHT22;3186;54.062;9.962;2023-03-01T14:08:04;8.00;99.90
6307;DHT22;3186;54.062;9.962;2023-03-01T14:21:20;8.60;99.90
6307;DHT22;3186;54.062;9.962;2023-03-01T14:23:48;8.50;99.90
6307;DHT22;3186;54.062;9.962;2023-03-01T14:26:21;8.60;99.90
6307;DHT22;3186;54.062;9.962;2023-03-01T14:28:48;8.60;99.90
6307;DHT22;3186;54.062;9.962;2023-03-01T14:31:36;8.90;99.90
6307;DHT22;3186;54.062;9.962;2023-03-01T14:34:03;8.90;99.90
6307;DHT22;3186;54.062;9.962;2023-03-01T14:36:33;9.00;99.90
6307;DHT22;3186;54.062;9.962;2023-03-01T14:38:59;8.60;99.90
6307;DHT22;3186;54.062;9.962;2023-03-01T14:41:35;8.20;99.90
6307;DHT22;3186;54.062;9.962;2023-03-01T14:44:07;8.50;99.90
6307;DHT22;3186;54.062;9.962;2023-03-01T14:46:42;8.80;99.90
6307;DHT22;3186;54.062;9.962;2023-03-01T14:49:24;8.80;99.90
6307;DHT22;3186;54.062;9.962;2023-03-01T14:52:03;9.00;99.90
6307;DHT22;3186;54.062;9.962;2023-03-01T14:54:42;8.80;99.90
6307;DHT22;3186;54.062;9.962;2023-03-01T14:57:16;8.70;99.90
6307;DHT22;3186;54.062;9.962;2023-03-01T14:59:43;8.70;99.90
6307;DHT22;3186;54.062;9.962;2023-03-01T15:02:16;8.80;99.90
6307;DHT22;3186;54.062;9.962;2023-03-01T15:04:46;8.70;99.90
6307;DHT22;3186;54.062;9.962;2023-03-01T15:07:13;8.60;99.90
6307;DHT22;3186;54.062;9.962;2023-03-01T15:09:40;8.40;99.90
6307;DHT22;3186;54.062;9.962;2023-03-01T15:12:44;8.40;99.90
6307;DHT22;3186;54.062;9.962;2023-03-01T15:15:43;8.10;99.90
6307;DHT22;3186;54.062;9.962;2023-03-01T15:18:21;8.20;99.90
6307;DHT22;3186;54.062;9.962;2023-03-01T15:20:48;8.20;99.90
6307;DHT22;3186;54.062;9.962;2023-03-01T15:23:28;7.80;99.90
6307;DHT22;3186;54.062;9.962;2023-03-01T15:25:55;8.00;99.90
6307;DHT22;3186;54.062;9.962;2023-03-01T15:28:28;7.90;99.90
6307;DHT22;3186;54.062;9.962;2023-03-01T15:33:32;7.90;99.90
6307;DHT22;3186;54.062;9.962;2023-03-01T15:36:04;7.70;99.90
6307;DHT22;3186;54.062;9.962;2023-03-01T15:38:55;7.90;99.90
6307;DHT22;3186;54.062;9.962;2023-03-01T15:41:38;7.60;99.90
6307;DHT22;3186;54.062;9.962;2023-03-01T15:44:26;7.60;99.90
6307;DHT22;3186;54.062;9.962;2023-03-01T15:46:52;7.20;99.90
6307;DHT22;3186;54.062;9.962;2023-03-01T15:49:37;7.40;99.90
6307;DHT22;3186;54.062;9.962;2023-03-01T15:52:06;7.40;99.90
6307;DHT22;3186;54.062;9.962;2023-03-01T15:54:35;7.20;99.90
6307;DHT22;3186;54.062;9.962;2023-03-01T15:57:01;7.10;99.90
6307;DHT22;3186;54.062;9.962;2023-03-01T15:59:26;7.40;99.90
6307;DHT22;3186;54.062;9.962;2023-03-01T16:01:52;7.40;99.90
6307;DHT22;3186;54.062;9.962;2023-03-01T16:04:19;7.40;99.90
6307;DHT22;3186;54.062;9.962;2023-03-01T16:06:50;7.30;99.90
6307;DHT22;3186;54.062;9.962;2023-03-01T16:09:23;7.40;99.90
6307;DHT22;3186;54.062;9.962;2023-03-01T16:11:52;7.40;99.90
6307;DHT22;3186;54.062;9.962;2023-03-01T16:14:19;7.50;99.90
6307;DHT22;3186;54.062;9.962;2023-03-01T16:16:45;7.50;99.90
6307;DHT22;3186;54.062;9.962;2023-03-01T16:19:11;7.50;99.90
6307;DHT22;3186;54.062;9.962;2023-03-01T16:21:38;7.40;99.90
6307;DHT22;3186;54.062;9.962;2023-03-01T16:24:04;7.30;99.90
6307;DHT22;3186;54.062;9.962;2023-03-01T16:26:30;7.20;99.90
6307;DHT22;3186;54.062;9.962;2023-03-01T16:28:56;7.20;99.90
6307;DHT22;3186;54.062;9.962;2023-03-01T16:31:23;7.20;99.90
6307;DHT22;3186;54.062;9.962;2023-03-01T16:33:49;7.10;99.90
6307;DHT22;3186;54.062;9.962;2023-03-01T16:36:19;7.10;99.90
6307;DHT22;3186;54.062;9.962;2023-03-01T16:38:45;7.10;99.90
6307;DHT22;3186;54.062;9.962;2023-03-01T16:41:17;7.00;99.90
6307;DHT22;3186;54.062;9.962;2023-03-01T16:43:43;7.00;99.90
6307;DHT22;3186;54.062;9.962;2023-03-01T16:46:32;7.00;99.90
6307;DHT22;3186;54.062;9.962;2023-03-01T16:48:57;6.90;99.90
6307;DHT22;3186;54.062;9.962;2023-03-01T16:51:24;6.80;99.90
6307;DHT22;3186;54.062;9.962;2023-03-01T16:53:50;6.70;99.90
6307;DHT22;3186;54.062;9.962;2023-03-01T16:56:17;6.60;99.90
6307;DHT22;3186;54.062;9.962;2023-03-01T16:58:44;6.60;99.90
6307;DHT22;3186;54.062;9.962;2023-03-01T17:01:18;6.50;99.90
6307;DHT22;3186;54.062;9.962;2023-03-01T17:03:45;6.50;99.90
6307;DHT22;3186;54.062;9.962;2023-03-01T17:06:14;6.60;99.90
6307;DHT22;3186;54.062;9.962;2023-03-01T17:08:40;6.50;99.90
6307;DHT22;3186;54.062;9.962;2023-03-01T17:11:10;6.40;99.90
6307;DHT22;3186;54.062;9.962;2023-03-01T17:13:37;6.30;99.90
6307;DHT22;3186;54.062;9.962;2023-03-01T17:16:05;6.30;99.90
6307;DHT22;3186;54.062;9.962;2023-03-01T17:18:31;6.30;99.90
6307;DHT22;3186;54.062;9.962;2023-03-01T17:20:57;6.30;99.90
6307;DHT22;3186;54.062;9.962;2023-03-01T17:23:23;6.30;99.90
6307;DHT22;3186;54.062;9.962;2023-03-01T17:25:48;6.30;99.90
6307;DHT22;3186;54.062;9.962;2023-03-01T17:28:14;6.20;99.90
6307;DHT22;3186;54.062;9.962;2023-03-01T17:30:42;6.20;99.90
6307;DHT22;3186;54.062;9.962;2023-03-01T17:33:10;6.10;99.90
6307;DHT22;3186;54.062;9.962;2023-03-01T17:35:37;6.10;99.90
6307;DHT22;3186;54.062;9.962;2023-03-01T17:38:04;6.00;99.90
6307;DHT22;3186;54.062;9.962;2023-03-01T17:40:31;6.00;99.90
6307;DHT22;3186;54.062;9.962;2023-03-01T17:42:57;6.00;99.90
6307;DHT22;3186;54.062;9.962;2023-03-01T17:45:23;5.90;99.90
6307;DHT22;3186;54.062;9.962;2023-03-01T17:47:49;5.90;99.90
6307;DHT22;3186;54.062;9.962;2023-03-01T17:50:15;5.90;99.90
6307;DHT22;3186;54.062;9.962;2023-03-01T17:52:41;5.80;99.90
6307;DHT22;3186;54.062;9.962;2023-03-01T17:55:08;5.70;99.90
6307;DHT22;3186;54.062;9.962;2023-03-01T17:57:33;5.70;99.90
6307;DHT22;3186;54.062;9.962;2023-03-01T17:59:59;5.70;99.90
6307;DHT22;3186;54.062;9.962;2023-03-01T18:02:25;5.70;99.90
6307;DHT22;3186;54.062;9.962;2023-03-01T18:04:51;5.70;99.90
6307;DHT22;3186;54.062;9.962;2023-03-01T18:07:18;5.60;99.90
6307;DHT22;3186;54.062;9.962;2023-03-01T18:09:44;5.50;99.90
6307;DHT22;3186;54.062;9.962;2023-03-01T18:12:10;5.50;99.90
6307;DHT22;3186;54.062;9.962;2023-03-01T18:14:36;5.50;99.90
6307;DHT22;3186;54.062;9.962;2023-03-01T18:17:02;5.40;99.90
6307;DHT22;3186;54.062;9.962;2023-03-01T18:19:31;5.40;99.90
6307;DHT22;3186;54.062;9.962;2023-03-01T18:21:57;5.30;99.90
6307;DHT22;3186;54.062;9.962;2023-03-01T18:24:23;5.30;99.90
6307;DHT22;3186;54.062;9.962;2023-03-01T18:26:48;5.30;99.90
6307;DHT22;3186;54.062;9.962;2023-03-01T18:29:14;5.30;99.90
6307;DHT22;3186;54.062;9.962;2023-03-01T18:31:40;5.30;99.90
6307;DHT22;3186;54.062;9.962;2023-03-01T18:34:06;5.30;99.90
6307;DHT22;3186;54.062;9.962;2023-03-01T18:36:34;5.20;99.90
6307;DHT22;3186;54.062;9.962;2023-03-01T18:39:04;5.20;99.90
6307;DHT22;3186;54.062;9.962;2023-03-01T18:41:30;5.20;99.90
6307;DHT22;3186;54.062;9.962;2023-03-01T18:43:57;5.20;99.90